createdAt,value
2019-01-10T00:00:37.652Z,4.10
2019-01-10T00:04:50.269Z,4.10
2019-01-10T00:09:02.784Z,4.10
2019-01-10T00:13:15.736Z,4.10
2019-01-10T00:17:28.072Z,4.10
2019-01-10T00:21:41.514Z,4.20
2019-01-10T00:25:53.969Z,4.30
2019-01-10T00:30:08.925Z,4.30
2019-01-10T00:34:22.236Z,4.30
2019-01-10T00:38:35.195Z,4.30
2019-01-10T00:42:49.624Z,4.40
2019-01-10T00:47:02.112Z,4.30
2019-01-10T00:51:14.421Z,4.30
2019-01-10T00:55:26.764Z,4.30
2019-01-10T00:59:39.353Z,4.20
2019-01-10T01:03:51.805Z,4.20
2019-01-10T01:08:04.118Z,4.20
2019-01-10T01:12:16.900Z,4.30
2019-01-10T01:16:29.954Z,4.20
2019-01-10T01:20:42.187Z,4.20
2019-01-10T01:24:54.740Z,4.30
2019-01-10T01:29:07.554Z,4.40
2019-01-10T01:33:19.840Z,4.50
2019-01-10T01:37:32.243Z,4.50
2019-01-10T01:41:45.278Z,4.50
2019-01-10T01:45:57.477Z,4.40
2019-01-10T01:50:12.007Z,4.40
2019-01-10T01:54:24.259Z,4.30
2019-01-10T01:58:36.953Z,4.20
2019-01-10T02:02:50.636Z,4.10
2019-01-10T02:07:02.958Z,4.00
2019-01-10T02:11:15.758Z,4.10
2019-01-10T02:15:29.453Z,4.10
2019-01-10T02:19:41.946Z,4.10
2019-01-10T02:23:54.313Z,4.10
2019-01-10T02:28:07.045Z,4.10
2019-01-10T02:32:19.430Z,4.30
2019-01-10T02:36:31.796Z,4.40
2019-01-10T02:40:44.489Z,4.50
2019-01-10T02:44:56.825Z,4.50
2019-01-10T02:49:09.635Z,4.40
2019-01-10T02:53:22.086Z,4.60
2019-01-10T02:57:34.398Z,4.70
2019-01-10T03:01:46.991Z,4.70
2019-01-10T03:05:59.437Z,4.60
2019-01-10T03:10:13.229Z,4.50
2019-01-10T03:14:25.965Z,4.60
2019-01-10T03:18:38.489Z,4.70
2019-01-10T03:22:51.309Z,4.80
2019-01-10T03:27:03.937Z,4.60
2019-01-10T03:31:16.913Z,4.60
2019-01-10T03:35:29.420Z,4.60
2019-01-10T03:39:42.408Z,4.70
2019-01-10T03:43:54.871Z,4.80
2019-01-10T03:48:07.452Z,4.60
2019-01-10T03:52:20.061Z,4.40
2019-01-10T03:56:32.393Z,4.30
2019-01-10T04:00:45.098Z,4.30
2019-01-10T04:04:57.662Z,4.30
2019-01-10T04:09:10.579Z,4.10
2019-01-10T04:13:23.106Z,3.90
2019-01-10T04:17:35.390Z,3.90
2019-01-10T04:21:48.067Z,3.90
2019-01-10T04:26:00.626Z,3.80
2019-01-10T04:30:21.351Z,3.60
2019-01-10T04:34:33.684Z,3.40
2019-01-10T04:38:46.572Z,3.40
2019-01-10T04:42:59.182Z,3.50
2019-01-10T04:47:12.016Z,3.60
2019-01-10T04:51:24.440Z,3.60
2019-01-10T04:55:36.765Z,3.50
2019-01-10T04:59:49.362Z,3.40
2019-01-10T05:04:01.702Z,3.50
2019-01-10T05:08:13.921Z,3.50
2019-01-10T05:12:26.620Z,3.50
2019-01-10T05:16:38.961Z,3.40
2019-01-10T05:20:52.404Z,3.30
2019-01-10T05:25:04.965Z,3.30
2019-01-10T05:29:17.660Z,3.30
2019-01-10T05:33:30.161Z,3.30
2019-01-10T05:37:43.501Z,3.20
2019-01-10T05:41:56.390Z,3.10
2019-01-10T05:46:08.835Z,3.20
2019-01-10T05:50:22.275Z,3.20
2019-01-10T05:54:34.669Z,3.30
2019-01-10T05:58:47.276Z,3.20
2019-01-10T06:03:00.104Z,3.10
2019-01-10T06:07:12.825Z,3.20
2019-01-10T06:11:26.471Z,3.00
2019-01-10T06:15:38.829Z,2.90
2019-01-10T06:19:52.261Z,3.00
2019-01-10T06:24:04.454Z,3.00
2019-01-10T06:28:17.221Z,2.80
2019-01-10T06:32:29.673Z,2.60
2019-01-10T06:36:42.680Z,2.40
2019-01-10T06:40:55.188Z,2.30
2019-01-10T06:45:09.099Z,2.40
2019-01-10T06:49:21.690Z,2.20
2019-01-10T06:53:34.422Z,2.10
2019-01-10T06:57:47.371Z,2.10
2019-01-10T07:01:59.870Z,2.20
2019-01-10T07:06:12.675Z,2.10
2019-01-10T07:10:28.804Z,2.30
2019-01-10T07:14:41.097Z,2.30
2019-01-10T07:18:53.780Z,2.30
2019-01-10T07:23:06.448Z,2.40
2019-01-10T07:27:18.965Z,2.50
2019-01-10T07:31:31.939Z,2.50
2019-01-10T07:35:44.653Z,2.60
2019-01-10T07:39:57.543Z,2.50
2019-01-10T07:44:10.178Z,2.50
2019-01-10T07:48:22.994Z,2.60
2019-01-10T07:52:35.957Z,2.80
2019-01-10T07:56:48.550Z,2.70
2019-01-10T08:01:01.008Z,2.50
2019-01-10T08:05:13.764Z,2.60
2019-01-10T08:09:26.245Z,2.80
2019-01-10T08:13:39.116Z,2.90
2019-01-10T08:17:51.682Z,2.80
2019-01-10T08:22:04.466Z,2.70
2019-01-10T08:26:17.125Z,2.70
2019-01-10T08:30:29.719Z,2.80
2019-01-10T08:34:42.450Z,2.80
2019-01-10T08:38:54.770Z,2.70
2019-01-10T08:43:07.559Z,2.40
2019-01-10T08:47:19.914Z,2.50
2019-01-10T08:51:31.894Z,2.70
2019-01-10T08:55:44.504Z,2.90
2019-01-10T08:59:58.254Z,3.10
2019-01-10T09:04:10.880Z,3.10
2019-01-10T09:08:23.113Z,3.40
2019-01-10T09:12:35.705Z,3.50
2019-01-10T09:16:48.154Z,3.50
2019-01-10T09:21:04.523Z,3.60
2019-01-10T09:25:15.137Z,3.80
2019-01-10T09:29:28.640Z,3.90
2019-01-10T09:33:41.788Z,3.90
2019-01-10T09:37:54.166Z,3.90
2019-01-10T09:42:07.148Z,4.10
2019-01-10T09:46:19.524Z,4.20
2019-01-10T09:50:33.372Z,4.40
2019-01-10T09:54:46.476Z,4.40
2019-01-10T09:58:58.773Z,4.60
2019-01-10T10:03:11.654Z,4.80
2019-01-10T10:07:23.994Z,5.00
2019-01-10T10:11:36.697Z,5.10
2019-01-10T10:15:52.630Z,5.20
2019-01-10T10:20:03.678Z,5.40
2019-01-10T10:24:16.147Z,5.60
2019-01-10T10:28:28.638Z,5.80
2019-01-10T10:32:41.630Z,6.00
2019-01-10T10:36:54.034Z,6.00
2019-01-10T10:41:06.668Z,6.00
2019-01-10T10:45:20.043Z,6.10
2019-01-10T10:49:33.651Z,6.20
2019-01-10T10:53:45.996Z,6.30
2019-01-10T10:57:59.457Z,6.40
2019-01-10T11:02:11.840Z,6.50
2019-01-10T11:06:24.595Z,6.50
2019-01-10T11:10:36.997Z,6.70
2019-01-10T11:14:49.429Z,6.90
2019-01-10T11:19:02.046Z,7.00
2019-01-10T11:23:14.398Z,7.10
2019-01-10T11:27:27.397Z,7.30
2019-01-10T11:31:41.093Z,7.50
2019-01-10T11:35:53.659Z,7.60
2019-01-10T11:40:08.001Z,7.80
2019-01-10T11:44:20.535Z,8.00
2019-01-10T11:48:32.923Z,8.00
2019-01-10T11:52:46.049Z,8.10
2019-01-10T11:56:58.847Z,8.30
2019-01-10T12:01:13.207Z,8.40
2019-01-10T12:05:26.053Z,8.50
2019-01-10T12:09:38.757Z,8.60
2019-01-10T12:13:54.927Z,8.60
2019-01-10T12:18:11.265Z,8.70
2019-01-10T12:22:24.009Z,8.60
2019-01-10T12:26:36.804Z,8.60
2019-01-10T12:30:49.309Z,8.70
2019-01-10T12:35:01.816Z,8.70
2019-01-10T12:39:14.597Z,8.80
2019-01-10T12:43:27.085Z,8.80
2019-01-10T12:47:39.879Z,8.80
2019-01-10T12:51:53.516Z,8.80
2019-01-10T12:56:05.981Z,8.90
2019-01-10T13:00:20.347Z,8.90
2019-01-10T13:04:34.029Z,8.90
2019-01-10T13:08:46.741Z,8.90
2019-01-10T13:12:59.645Z,8.90
2019-01-10T13:17:13.612Z,9.00
2019-01-10T13:21:28.529Z,8.90
2019-01-10T13:25:41.049Z,8.80
2019-01-10T13:29:54.061Z,8.50
2019-01-10T13:34:07.080Z,8.50
2019-01-10T13:38:19.691Z,8.70
2019-01-10T13:42:32.210Z,8.80
2019-01-10T13:46:45.203Z,9.00
2019-01-10T13:50:59.054Z,9.20
2019-01-10T13:55:12.769Z,9.20
2019-01-10T13:59:25.504Z,9.00
2019-01-10T14:03:39.119Z,8.90
2019-01-10T14:07:51.640Z,8.80
2019-01-10T14:12:04.463Z,8.70
2019-01-10T14:16:16.866Z,8.70
2019-01-10T14:20:29.712Z,8.60
2019-01-10T14:24:41.964Z,8.50
2019-01-10T14:28:54.367Z,8.50
2019-01-10T14:33:07.852Z,8.60
2019-01-10T14:37:20.768Z,8.70
2019-01-10T14:41:34.448Z,8.70
2019-01-10T14:45:46.995Z,8.70
2019-01-10T14:49:59.717Z,8.70
2019-01-10T14:54:12.175Z,8.80
2019-01-10T14:58:25.316Z,8.80
2019-01-10T15:02:37.717Z,8.80
2019-01-10T15:06:50.101Z,8.70
2019-01-10T15:11:02.860Z,8.60
2019-01-10T15:15:17.279Z,8.60
2019-01-10T15:19:31.100Z,8.60
2019-01-10T15:23:43.561Z,8.60
2019-01-10T15:27:55.968Z,8.50
2019-01-10T15:32:08.723Z,8.60
2019-01-10T15:36:21.396Z,8.60
2019-01-10T15:40:36.684Z,8.50
2019-01-10T15:44:49.442Z,8.40
2019-01-10T15:49:01.935Z,8.30
2019-01-10T15:53:14.864Z,8.20
2019-01-10T15:57:27.288Z,8.10
2019-01-10T16:01:40.173Z,8.20
2019-01-10T16:05:52.624Z,8.10
2019-01-10T16:10:05.913Z,8.10
2019-01-10T16:14:18.400Z,8.00
2019-01-10T16:18:31.167Z,7.90
2019-01-10T16:22:43.824Z,7.80
2019-01-10T16:26:56.633Z,7.70
2019-01-10T16:31:09.294Z,7.50
2019-01-10T16:35:22.335Z,7.40
2019-01-10T16:39:34.725Z,7.30
2019-01-10T16:43:47.613Z,7.20
2019-01-10T16:48:00.235Z,7.20
2019-01-10T16:52:13.153Z,7.10
2019-01-10T16:56:25.722Z,6.90
2019-01-10T17:00:38.601Z,6.90
2019-01-10T17:04:52.339Z,6.80
2019-01-10T17:09:06.520Z,6.70
2019-01-10T17:13:19.340Z,6.60
2019-01-10T17:17:37.536Z,6.60
2019-01-10T17:21:46.203Z,6.60
2019-01-10T17:25:58.869Z,6.60
2019-01-10T17:30:14.825Z,6.40
2019-01-10T17:34:27.460Z,6.20
2019-01-10T17:38:40.061Z,6.30
2019-01-10T17:42:53.136Z,6.30
2019-01-10T17:47:06.156Z,6.20
2019-01-10T17:51:18.635Z,6.20
2019-01-10T17:55:31.467Z,6.10
2019-01-10T17:59:43.953Z,6.00
2019-01-10T18:03:56.813Z,6.10
2019-01-10T18:08:09.282Z,6.20
2019-01-10T18:12:22.257Z,6.20
2019-01-10T18:16:34.850Z,6.10
2019-01-10T18:20:47.896Z,5.90
2019-01-10T18:25:00.262Z,5.90
2019-01-10T18:29:13.052Z,5.90
2019-01-10T18:33:25.775Z,5.90
2019-01-10T18:37:38.761Z,5.90
2019-01-10T18:41:52.230Z,5.80
2019-01-10T18:46:04.727Z,5.50
2019-01-10T18:50:21.845Z,5.50
2019-01-10T18:54:34.753Z,5.40
2019-01-10T18:58:47.638Z,5.40
2019-01-10T19:03:00.687Z,5.30
2019-01-10T19:07:13.437Z,5.30
2019-01-10T19:11:25.828Z,5.40
2019-01-10T19:15:38.737Z,5.50
2019-01-10T19:19:51.421Z,5.40
2019-01-10T19:24:04.371Z,5.40
2019-01-10T19:28:16.793Z,5.20
2019-01-10T19:32:31.513Z,5.20
2019-01-10T19:36:44.494Z,5.20
2019-01-10T19:40:57.048Z,5.20
2019-01-10T19:45:10.536Z,5.20
2019-01-10T19:49:23.489Z,5.00
2019-01-10T19:53:36.036Z,5.00
2019-01-10T19:57:48.529Z,4.90
2019-01-10T20:02:01.290Z,4.70
2019-01-10T20:06:13.691Z,4.60
2019-01-10T20:10:26.528Z,4.60
2019-01-10T20:14:39.040Z,4.40
2019-01-10T20:18:51.438Z,4.40
2019-01-10T20:23:04.927Z,4.30
2019-01-10T20:27:17.961Z,4.20
2019-01-10T20:31:30.761Z,4.20
2019-01-10T20:35:43.269Z,3.90
2019-01-10T20:39:56.769Z,3.70
2019-01-10T20:44:08.966Z,3.60
2019-01-10T20:48:22.534Z,3.60
2019-01-10T20:52:35.550Z,3.70
2019-01-10T20:56:47.941Z,3.70
2019-01-10T21:01:02.194Z,3.70
2019-01-10T21:05:14.558Z,3.70
2019-01-10T21:09:28.611Z,3.80
2019-01-10T21:13:41.369Z,3.90
2019-01-10T21:17:53.829Z,3.70
2019-01-10T21:22:07.257Z,3.60
2019-01-10T21:26:19.573Z,3.50
2019-01-10T21:30:33.012Z,3.50
2019-01-10T21:34:46.468Z,3.70
2019-01-10T21:38:59.396Z,3.90
2019-01-10T21:43:12.973Z,4.00
2019-01-10T21:47:25.335Z,4.00
2019-01-10T21:51:37.745Z,4.00
2019-01-10T21:55:51.121Z,4.00
2019-01-10T22:00:04.375Z,4.00
2019-01-10T22:04:17.272Z,4.00
2019-01-10T22:08:29.669Z,3.90
2019-01-10T22:12:42.033Z,3.90
2019-01-10T22:16:54.897Z,3.80
2019-01-10T22:21:07.328Z,3.90
2019-01-10T22:25:20.895Z,3.90
2019-01-10T22:29:33.847Z,3.70
2019-01-10T22:33:46.703Z,3.60
2019-01-10T22:37:59.576Z,3.60
2019-01-10T22:42:12.031Z,3.60
2019-01-10T22:46:24.870Z,3.50
2019-01-10T22:50:37.456Z,3.40
2019-01-10T22:54:50.323Z,3.30
2019-01-10T22:59:02.800Z,3.40
2019-01-10T23:03:15.767Z,3.40
2019-01-10T23:07:29.443Z,3.40
2019-01-10T23:11:46.227Z,3.60
2019-01-10T23:15:59.254Z,3.60
2019-01-10T23:20:16.297Z,3.60
2019-01-10T23:24:32.332Z,3.60
2019-01-10T23:28:44.932Z,3.50
2019-01-10T23:33:00.431Z,3.40
2019-01-10T23:37:14.903Z,3.30
2019-01-10T23:41:27.985Z,3.30
2019-01-10T23:45:40.424Z,3.30
2019-01-10T23:49:53.923Z,3.20
2019-01-10T23:54:06.292Z,3.20
2019-01-10T23:58:18.981Z,3.30
